createdAt,value
2023-11-27T00:00:05.706Z,99983.81
2023-11-27T00:02:37.141Z,99983.47
2023-11-27T00:05:06.522Z,99980.50
2023-11-27T00:07:35.130Z,99987.25
2023-11-27T00:10:03.735Z,99974.47
2023-11-27T00:12:32.348Z,99977.22
2023-11-27T00:15:00.753Z,99976.41
2023-11-27T00:17:29.349Z,99985.41
2023-11-27T00:19:59.418Z,99984.50
2023-11-27T00:22:28.062Z,99984.97
2023-11-27T00:24:56.689Z,99992.13
2023-11-27T00:27:25.343Z,99997.06
2023-11-27T00:29:53.855Z,99990.19
2023-11-27T00:32:22.547Z,100003.00
2023-11-27T00:34:51.125Z,99999.00
2023-11-27T00:37:22.060Z,100001.91
2023-11-27T00:39:52.160Z,99986.59
2023-11-27T00:42:21.976Z,99996.31
2023-11-27T00:44:50.607Z,99991.31
2023-11-27T00:47:19.766Z,99989.53
2023-11-27T00:49:48.494Z,99992.56
2023-11-27T00:52:17.353Z,99990.19
2023-11-27T00:54:49.122Z,99984.38
2023-11-27T00:57:17.711Z,99977.91
2023-11-27T00:59:46.392Z,99982.44
2023-11-27T01:02:15.715Z,99983.53
2023-11-27T01:04:44.579Z,99988.59
2023-11-27T01:07:13.201Z,99981.44
2023-11-27T01:09:42.094Z,99977.22
2023-11-27T01:12:12.761Z,99972.84
2023-11-27T01:14:41.854Z,99973.81
2023-11-27T01:17:10.461Z,99972.16
2023-11-27T01:19:39.503Z,99969.78
2023-11-27T01:22:08.673Z,99979.59
2023-11-27T01:24:36.241Z,99978.81
2023-11-27T01:27:05.181Z,99983.84
2023-11-27T01:29:35.205Z,99979.34
2023-11-27T01:32:03.729Z,99978.91
2023-11-27T01:34:33.983Z,99981.63
2023-11-27T01:37:02.977Z,99979.09
2023-11-27T01:39:31.646Z,99989.38
2023-11-27T01:42:00.139Z,99984.13
2023-11-27T01:44:28.717Z,99984.13
2023-11-27T01:46:59.633Z,99982.41
2023-11-27T01:49:28.038Z,99975.63
2023-11-27T01:51:57.387Z,99971.50
2023-11-27T01:54:26.158Z,99961.13
2023-11-27T01:56:55.841Z,99962.09
2023-11-27T01:59:26.090Z,99962.09
2023-11-27T02:01:55.216Z,99964.03
2023-11-27T02:04:25.399Z,99961.34
2023-11-27T02:06:54.399Z,99962.69
2023-11-27T02:09:22.956Z,99960.75
2023-11-27T02:11:53.412Z,99957.19
2023-11-27T02:14:22.329Z,99954.56
2023-11-27T02:16:51.171Z,99942.06
2023-11-27T02:19:19.898Z,99942.31
2023-11-27T02:21:50.951Z,99937.72
2023-11-27T02:24:20.770Z,99949.19
2023-11-27T02:26:49.368Z,99938.94
2023-11-27T02:29:18.083Z,99938.72
2023-11-27T02:31:47.445Z,99937.59
2023-11-27T02:34:18.761Z,99926.53
2023-11-27T02:36:47.536Z,99920.72
2023-11-27T02:39:16.468Z,99910.13
2023-11-27T02:41:46.813Z,99906.06
2023-11-27T02:44:15.591Z,99904.13
2023-11-27T02:46:44.399Z,99911.91
2023-11-27T03:04:42.500Z,99913.56
2023-11-27T03:07:11.436Z,99909.97
2023-11-27T03:09:39.957Z,99915.38
2023-11-27T03:12:09.471Z,99910.72
2023-11-27T03:14:38.541Z,99915.91
2023-11-27T03:17:07.205Z,99914.44
2023-11-27T03:19:47.067Z,99908.69
2023-11-27T03:22:18.129Z,99915.69
2023-11-27T03:24:46.955Z,99920.81
2023-11-27T03:27:15.932Z,99917.31
2023-11-27T03:29:44.532Z,99917.88
2023-11-27T03:32:13.253Z,99925.09
2023-11-27T03:34:41.889Z,99923.44
2023-11-27T03:37:10.600Z,99924.88
2023-11-27T03:39:40.593Z,99925.84
2023-11-27T03:42:09.279Z,99921.53
2023-11-27T03:44:37.875Z,99918.19
2023-11-27T03:47:06.759Z,99912.91
2023-11-27T03:49:37.499Z,99907.69
2023-11-27T03:52:06.656Z,99901.78
2023-11-27T03:54:35.320Z,99894.53
2023-11-27T03:57:05.562Z,99893.59
2023-11-27T03:59:34.211Z,99896.22
2023-11-27T04:02:03.340Z,99896.28
2023-11-27T04:04:32.167Z,99886.72
2023-11-27T04:07:01.747Z,99896.22
2023-11-27T04:09:30.276Z,99895.28
2023-11-27T04:11:58.991Z,99893.59
2023-11-27T04:14:29.292Z,99901.19
2023-11-27T04:16:58.918Z,99909.00
2023-11-27T04:19:28.404Z,99908.44
2023-11-27T04:21:57.146Z,99895.44
2023-11-27T04:24:25.729Z,99892.75
2023-11-27T04:26:54.293Z,99898.56
2023-11-27T04:29:23.238Z,99895.00
2023-11-27T04:31:53.372Z,99899.44
2023-11-27T04:34:22.408Z,99904.34
2023-11-27T04:36:51.052Z,99907.88
2023-11-27T04:39:19.983Z,99911.41
2023-11-27T04:41:49.343Z,99910.88
2023-11-27T04:44:20.420Z,99908.31
2023-11-27T04:46:49.118Z,99906.50
2023-11-27T04:49:19.173Z,99915.38
2023-11-27T04:51:47.926Z,99910.97
2023-11-27T04:54:16.472Z,99911.94
2023-11-27T04:56:45.789Z,99903.19
2023-11-27T04:59:15.080Z,99905.63
2023-11-27T05:01:44.067Z,99901.28
2023-11-27T05:04:17.850Z,99891.69
2023-11-27T05:06:48.114Z,99891.69
2023-11-27T05:09:17.577Z,99889.06
2023-11-27T05:11:46.346Z,99879.25
2023-11-27T05:14:14.988Z,99878.97
2023-11-27T05:16:43.599Z,99876.28
2023-11-27T05:19:12.188Z,99879.75
2023-11-27T05:21:40.805Z,99876.44
2023-11-27T05:24:10.801Z,99878.38
2023-11-27T05:26:39.480Z,99885.44
2023-11-27T05:29:08.138Z,99875.75
2023-11-27T05:31:36.866Z,99871.88
2023-11-27T05:34:05.732Z,99886.56
2023-11-27T05:36:34.550Z,99882.41
2023-11-27T05:39:03.170Z,99885.50
2023-11-27T05:41:33.196Z,99884.19
2023-11-27T05:44:04.102Z,99881.81
2023-11-27T05:46:32.721Z,99882.66
2023-11-27T05:49:01.513Z,99883.63
2023-11-27T05:51:30.411Z,99886.16
2023-11-27T05:53:58.971Z,99884.34
2023-11-27T05:56:27.500Z,99878.25
2023-11-27T05:58:57.462Z,99884.22
2023-11-27T06:01:26.123Z,99880.75
2023-11-27T06:03:54.703Z,99881.41
2023-11-27T06:06:23.836Z,99872.00
2023-11-27T06:08:52.417Z,99871.94
2023-11-27T06:11:21.010Z,99877.25
2023-11-27T06:13:49.530Z,99875.41
2023-11-27T06:16:19.587Z,99875.59
2023-11-27T06:18:48.227Z,99871.31
2023-11-27T06:21:17.133Z,99873.81
2023-11-27T06:23:45.778Z,99876.56
2023-11-27T06:26:14.915Z,99879.50
2023-11-27T06:28:43.596Z,99873.53
2023-11-27T06:31:12.386Z,99882.41
2023-11-27T06:33:43.504Z,99880.44
2023-11-27T06:36:13.122Z,99884.75
2023-11-27T06:38:41.635Z,99872.59
2023-11-27T06:41:10.277Z,99873.41
2023-11-27T06:43:40.644Z,99871.47
2023-11-27T06:46:13.345Z,99874.50
2023-11-27T06:48:43.644Z,99870.75
2023-11-27T06:51:12.341Z,99878.44
2023-11-27T06:53:40.867Z,99876.69
2023-11-27T06:56:11.382Z,99869.81
2023-11-27T06:58:40.159Z,99881.31
2023-11-27T07:01:12.360Z,99888.06
2023-11-27T07:03:42.509Z,99883.91
2023-11-27T07:06:11.899Z,99879.00
2023-11-27T07:08:40.432Z,99876.44
2023-11-27T07:11:10.983Z,99876.38
2023-11-27T07:13:39.648Z,99883.50
2023-11-27T07:16:09.529Z,99869.63
2023-11-27T07:18:38.227Z,99855.59
2023-11-27T07:21:08.647Z,99864.38
2023-11-27T07:23:41.393Z,99857.34
2023-11-27T07:26:11.228Z,99854.91
2023-11-27T07:28:42.313Z,99851.19
2023-11-27T07:31:12.376Z,99848.34
2023-11-27T07:33:41.038Z,99849.19
2023-11-27T07:36:12.745Z,99843.09
2023-11-27T07:38:42.598Z,99834.81
2023-11-27T07:41:11.448Z,99838.53
2023-11-27T07:43:40.105Z,99831.06
2023-11-27T07:46:12.484Z,99824.03
2023-11-27T07:48:41.675Z,99823.63
2023-11-27T07:51:12.059Z,99827.63
2023-11-27T07:53:40.823Z,99829.34
2023-11-27T07:56:10.401Z,99830.78
2023-11-27T07:58:40.134Z,99823.97
2023-11-27T08:01:09.504Z,99839.47
2023-11-27T08:03:39.877Z,99835.81
2023-11-27T08:06:10.433Z,99842.69
2023-11-27T08:08:40.610Z,99845.19
2023-11-27T08:11:10.945Z,99847.91
2023-11-27T08:13:40.217Z,99850.09
2023-11-27T08:16:09.534Z,99851.06
2023-11-27T08:18:41.703Z,99847.91
2023-11-27T08:21:12.230Z,99839.16
2023-11-27T08:23:44.643Z,99837.69
2023-11-27T08:26:15.820Z,99834.41
2023-11-27T08:28:45.161Z,99828.47
2023-11-27T08:31:14.044Z,99823.69
2023-11-27T08:33:43.487Z,99827.75
2023-11-27T08:36:13.049Z,99817.41
2023-11-27T08:38:43.186Z,99815.69
2023-11-27T08:41:13.125Z,99825.31
2023-11-27T08:43:42.747Z,99821.72
2023-11-27T08:46:11.413Z,99820.69
2023-11-27T08:48:40.028Z,99824.16
2023-11-27T08:51:13.268Z,99833.50
2023-11-27T08:53:46.597Z,99822.75
2023-11-27T08:56:19.591Z,99821.19
2023-11-27T08:58:49.252Z,99820.06
2023-11-27T09:01:18.437Z,99821.84
2023-11-27T09:03:47.683Z,99828.44
2023-11-27T09:06:20.911Z,99824.94
2023-11-27T09:08:51.469Z,99824.22
2023-11-27T09:11:25.141Z,99820.75
2023-11-27T09:13:55.454Z,99820.28
2023-11-27T09:16:27.333Z,99814.25
2023-11-27T09:18:56.340Z,99820.28
2023-11-27T09:21:25.210Z,99804.31
2023-11-27T09:23:58.374Z,99799.56
2023-11-27T09:26:30.039Z,99800.13
2023-11-27T09:29:04.299Z,99802.91
2023-11-27T09:31:40.131Z,99793.56
2023-11-27T09:34:09.400Z,99791.88
2023-11-27T09:36:38.664Z,99781.47
2023-11-27T09:39:12.797Z,99782.66
2023-11-27T09:41:44.495Z,99791.00
2023-11-27T09:44:16.838Z,99782.19
2023-11-27T09:46:48.390Z,99793.06
2023-11-27T09:49:20.836Z,99793.25
2023-11-27T09:51:53.952Z,99787.22
2023-11-27T09:54:28.686Z,99768.59
2023-11-27T09:56:57.905Z,99758.47
2023-11-27T09:59:30.529Z,99766.25
2023-11-27T10:02:03.516Z,99747.31
2023-11-27T10:04:32.857Z,99759.59
2023-11-27T10:07:04.615Z,99760.00
2023-11-27T10:09:35.576Z,99750.75
2023-11-27T10:12:04.572Z,99751.78
2023-11-27T10:14:37.994Z,99757.09
2023-11-27T10:17:13.928Z,99758.31
2023-11-27T10:19:43.249Z,99762.59
2023-11-27T10:22:13.850Z,99750.28
2023-11-27T10:24:45.211Z,99743.88
2023-11-27T10:27:14.155Z,99743.00
2023-11-27T10:29:46.053Z,99731.94
2023-11-27T10:32:14.795Z,99737.00
2023-11-27T10:34:46.241Z,99730.84
2023-11-27T10:37:15.204Z,99729.50
2023-11-27T10:39:49.904Z,99752.88
2023-11-27T10:42:24.571Z,99743.00
2023-11-27T10:44:53.555Z,99738.81
2023-11-27T10:47:23.743Z,99734.19
2023-11-27T10:49:56.630Z,99726.13
2023-11-27T10:52:27.308Z,99730.34
2023-11-27T10:55:05.178Z,99731.53
2023-11-27T10:57:40.422Z,99726.53
2023-11-27T11:00:10.656Z,99723.06
2023-11-27T11:02:40.646Z,99714.19
2023-11-27T11:05:16.430Z,99715.03
2023-11-27T11:07:48.422Z,99710.88
2023-11-27T11:10:27.841Z,99699.56
2023-11-27T11:13:00.856Z,99704.75
2023-11-27T11:15:37.092Z,99684.91
2023-11-27T11:18:13.821Z,99683.16
2023-11-27T11:20:59.589Z,99672.16
2023-11-27T11:23:34.189Z,99666.91
2023-11-27T11:26:41.577Z,99677.31
2023-11-27T11:29:25.071Z,99686.09
2023-11-27T11:32:01.758Z,99684.28
2023-11-27T11:34:34.321Z,99670.75
2023-11-27T11:37:05.222Z,99677.69
2023-11-27T11:39:34.211Z,99673.72
2023-11-27T11:42:06.151Z,99666.63
2023-11-27T11:44:38.034Z,99666.88
2023-11-27T11:47:27.796Z,99666.53
2023-11-27T11:50:20.512Z,99668.06
2023-11-27T11:52:52.187Z,99661.13
2023-11-27T11:55:27.864Z,99659.16
2023-11-27T11:58:05.360Z,99659.31
2023-11-27T12:00:45.833Z,99663.41
2023-11-27T12:03:18.698Z,99663.41
2023-11-27T12:05:51.921Z,99644.06
2023-11-27T12:08:23.178Z,99648.38
2023-11-27T12:10:52.846Z,99645.63
2023-11-27T12:13:25.496Z,99646.28
2023-11-27T12:15:57.968Z,99642.88
2023-11-27T12:18:27.931Z,99644.31
2023-11-27T12:21:00.114Z,99649.41
2023-11-27T12:23:39.925Z,99641.47
2023-11-27T12:26:09.531Z,99647.34
2023-11-27T12:28:40.083Z,99655.66
2023-11-27T12:31:09.299Z,99658.88
2023-11-27T12:33:40.908Z,99646.88
2023-11-27T12:36:11.111Z,99651.94
2023-11-27T12:38:43.034Z,99644.06
2023-11-27T12:41:13.912Z,99643.28
2023-11-27T12:43:44.114Z,99646.75
2023-11-27T12:46:14.964Z,99641.44
2023-11-27T12:48:45.285Z,99630.09
2023-11-27T12:51:19.997Z,99628.03
2023-11-27T12:53:51.518Z,99618.59
2023-11-27T12:56:26.075Z,99617.97
2023-11-27T12:58:56.432Z,99612.41
2023-11-27T13:01:28.589Z,99603.56
2023-11-27T13:03:57.927Z,99603.69
2023-11-27T13:06:29.165Z,99593.91
2023-11-27T13:08:58.171Z,99583.69
2023-11-27T13:11:33.391Z,99582.84
2023-11-27T13:14:09.386Z,99588.78
2023-11-27T13:16:38.761Z,99580.56
2023-11-27T13:19:08.692Z,99561.47
2023-11-27T13:21:40.473Z,99554.34
2023-11-27T13:24:15.030Z,99565.53
2023-11-27T13:26:44.914Z,99557.72
2023-11-27T13:29:16.254Z,99555.88
2023-11-27T13:31:45.386Z,99543.06
2023-11-27T13:34:33.854Z,99549.09
2023-11-27T13:37:09.502Z,99534.88
2023-11-27T13:39:41.881Z,99535.97
2023-11-27T13:42:11.288Z,99533.19
2023-11-27T13:44:46.366Z,99529.63
2023-11-27T13:47:21.906Z,99527.00
2023-11-27T13:49:56.781Z,99522.75
2023-11-27T13:52:31.392Z,99520.00
2023-11-27T13:55:02.503Z,99519.91
2023-11-27T13:57:34.312Z,99505.66
2023-11-27T14:00:22.250Z,99501.28
2023-11-27T14:02:52.704Z,99499.41
2023-11-27T14:05:23.186Z,99486.53
2023-11-27T14:07:53.892Z,99477.72
2023-11-27T14:10:33.277Z,99473.31
2023-11-27T14:13:09.925Z,99476.56
2023-11-27T14:15:49.093Z,99457.34
2023-11-27T14:18:46.397Z,99471.19
2023-11-27T14:21:35.124Z,99462.38
2023-11-27T14:24:14.028Z,99460.53
2023-11-27T14:27:15.973Z,99449.88
2023-11-27T14:29:47.023Z,99453.34
2023-11-27T14:32:19.458Z,99443.63
2023-11-27T14:34:53.297Z,99436.53
2023-11-27T14:37:23.107Z,99433.69
2023-11-27T14:39:52.435Z,99429.97
2023-11-27T14:42:21.914Z,99425.66
2023-11-27T14:44:50.897Z,99403.72
2023-11-27T14:47:25.838Z,99403.44
2023-11-27T14:50:02.326Z,99396.31
2023-11-27T14:52:39.539Z,99398.00
2023-11-27T14:55:13.810Z,99394.47
2023-11-27T14:57:42.816Z,99390.91
2023-11-27T15:00:21.109Z,99378.56
2023-11-27T15:02:51.671Z,99374.00
2023-11-27T15:05:20.509Z,99375.00
2023-11-27T15:07:50.263Z,99377.63
2023-11-27T15:10:20.851Z,99371.47
2023-11-27T15:12:52.272Z,99369.75
2023-11-27T15:15:24.255Z,99359.06
2023-11-27T15:17:57.974Z,99357.16
2023-11-27T15:20:29.449Z,99352.91
2023-11-27T15:22:58.444Z,99350.13
2023-11-27T15:25:27.373Z,99336.06
2023-11-27T15:27:57.523Z,99338.59
2023-11-27T15:30:33.226Z,99328.03
2023-11-27T15:33:04.229Z,99325.41
2023-11-27T15:35:39.268Z,99322.59
2023-11-27T15:38:13.614Z,99325.06
2023-11-27T15:40:42.843Z,99311.16
2023-11-27T15:43:11.765Z,99310.25
2023-11-27T15:45:42.599Z,99305.91
2023-11-27T15:48:14.054Z,99298.97
2023-11-27T15:50:42.989Z,99293.88
2023-11-27T15:53:14.314Z,99296.41
2023-11-27T15:55:43.508Z,99292.88
2023-11-27T15:58:12.390Z,99287.63
2023-11-27T16:00:44.287Z,99285.81
2023-11-27T16:03:14.599Z,99284.16
2023-11-27T16:05:43.775Z,99269.28
2023-11-27T16:08:12.577Z,99261.25
2023-11-27T16:10:50.923Z,99248.03
2023-11-27T16:13:19.848Z,99239.31
2023-11-27T16:15:48.739Z,99240.09
2023-11-27T16:18:21.885Z,99233.06
2023-11-27T16:20:50.824Z,99239.16
2023-11-27T16:23:19.430Z,99238.19
2023-11-27T16:25:50.668Z,99228.63
2023-11-27T16:28:19.746Z,99223.22
2023-11-27T16:30:50.529Z,99215.44
2023-11-27T16:33:20.814Z,99215.31
2023-11-27T16:35:49.527Z,99203.13
2023-11-27T16:38:18.478Z,99202.28
2023-11-27T16:40:47.441Z,99200.50
2023-11-27T16:43:16.069Z,99191.00
2023-11-27T16:45:45.069Z,99185.75
2023-11-27T16:48:16.663Z,99175.44
2023-11-27T16:50:51.372Z,99167.44
2023-11-27T16:53:26.483Z,99163.91
2023-11-27T16:55:57.101Z,99154.41
2023-11-27T16:58:26.477Z,99156.03
2023-11-27T17:00:55.292Z,99147.28
2023-11-27T17:03:24.254Z,99140.25
2023-11-27T17:05:55.603Z,99132.38
2023-11-27T17:08:31.056Z,99116.63
2023-11-27T17:10:59.950Z,99112.22
2023-11-27T17:13:28.838Z,99109.31
2023-11-27T17:15:57.591Z,99103.06
2023-11-27T17:18:26.403Z,99090.81
2023-11-27T17:20:56.667Z,99084.66
2023-11-27T17:23:26.979Z,99081.19
2023-11-27T17:25:56.036Z,99068.06
2023-11-27T17:28:25.910Z,99053.22
2023-11-27T17:30:55.164Z,99055.94
2023-11-27T17:33:25.611Z,99048.91
2023-11-27T17:35:55.810Z,99036.59
2023-11-27T17:38:24.444Z,99022.53
2023-11-27T17:40:53.280Z,99018.13
2023-11-27T17:43:22.319Z,99019.81
2023-11-27T17:45:55.285Z,99014.56
2023-11-27T17:48:24.101Z,99017.13
2023-11-27T17:50:53.169Z,99020.66
2023-11-27T17:53:23.595Z,99018.97
2023-11-27T17:55:57.746Z,99015.31
2023-11-27T17:58:27.604Z,99007.53
2023-11-27T18:00:56.636Z,99012.78
2023-11-27T18:03:25.612Z,98998.81
2023-11-27T18:05:54.193Z,98994.50
2023-11-27T18:08:24.499Z,98991.75
2023-11-27T18:10:52.992Z,98986.63
2023-11-27T18:13:21.781Z,98984.00
2023-11-27T18:15:50.460Z,98984.00
2023-11-27T18:18:20.152Z,98984.00
2023-11-27T18:20:49.825Z,98974.22
2023-11-27T18:23:23.229Z,98974.22
2023-11-27T18:25:54.500Z,98972.44
2023-11-27T18:28:24.387Z,98961.19
2023-11-27T18:30:53.070Z,98965.41
2023-11-27T18:33:21.833Z,98957.41
2023-11-27T18:35:52.677Z,98949.66
2023-11-27T18:38:20.273Z,98953.03
2023-11-27T18:40:53.098Z,98945.16
2023-11-27T18:43:23.730Z,98953.94
2023-11-27T18:45:54.586Z,98940.75
2023-11-27T18:48:23.329Z,98938.00
2023-11-27T19:06:56.335Z,98932.00
2023-11-27T19:09:29.445Z,98916.41
2023-11-27T19:11:58.851Z,98916.41
2023-11-27T19:14:29.010Z,98906.09
2023-11-27T19:16:57.937Z,98906.09
2023-11-27T19:19:26.761Z,98895.78
2023-11-27T19:21:56.986Z,98896.69
2023-11-27T19:24:40.956Z,98895.97
2023-11-27T19:27:10.024Z,98900.44
2023-11-27T19:29:38.714Z,98879.44
2023-11-27T19:32:08.579Z,98879.50
2023-11-27T19:34:38.718Z,98884.97
2023-11-27T19:37:09.805Z,98881.56
2023-11-27T19:39:38.363Z,98873.69
2023-11-27T19:42:07.329Z,98861.66
2023-11-27T19:44:36.005Z,98864.28
2023-11-27T19:47:06.122Z,98862.63
2023-11-27T19:49:36.601Z,98859.34
2023-11-27T19:52:07.206Z,98853.31
2023-11-27T19:54:39.235Z,98860.38
2023-11-27T19:57:11.648Z,98862.13
2023-11-27T19:59:45.983Z,98845.53
2023-11-27T20:02:14.941Z,98850.91
2023-11-27T20:04:45.232Z,98843.16
2023-11-27T20:07:14.661Z,98832.66
2023-11-27T20:09:47.480Z,98839.78
2023-11-27T20:12:16.396Z,98843.34
2023-11-27T20:14:45.267Z,98825.94
2023-11-27T20:17:16.476Z,98822.53
2023-11-27T20:19:52.384Z,98804.25
2023-11-27T20:22:27.936Z,98800.78
2023-11-27T20:24:59.382Z,98804.44
2023-11-27T20:27:30.231Z,98805.28
2023-11-27T20:30:01.581Z,98791.56
2023-11-27T20:32:33.446Z,98797.50
2023-11-27T20:35:03.030Z,98794.19
2023-11-27T20:37:34.338Z,98793.44
2023-11-27T20:40:15.779Z,98786.41
2023-11-27T20:42:44.716Z,98782.19
2023-11-27T20:45:13.529Z,98783.06
2023-11-27T20:47:44.910Z,98770.97
2023-11-27T20:50:15.936Z,98775.34
2023-11-27T20:52:46.418Z,98763.81
2023-11-27T20:55:17.300Z,98762.13
2023-11-27T20:57:46.051Z,98758.19
2023-11-27T21:00:19.729Z,98759.78
2023-11-27T21:02:48.518Z,98760.81
2023-11-27T21:05:17.463Z,98753.88
2023-11-27T21:07:46.232Z,98750.31
2023-11-27T21:10:16.625Z,98750.31
2023-11-27T21:12:47.626Z,98756.59
2023-11-27T21:15:17.168Z,98737.56
2023-11-27T21:17:45.972Z,98736.81
2023-11-27T21:20:17.893Z,98743.06
2023-11-27T21:22:46.866Z,98742.97
2023-11-27T21:25:18.799Z,98737.00
2023-11-27T21:27:49.233Z,98736.31
2023-11-27T21:30:19.393Z,98741.63
2023-11-27T21:32:49.265Z,98723.38
2023-11-27T21:35:18.675Z,98725.25
2023-11-27T21:37:48.617Z,98721.88
2023-11-27T21:40:20.530Z,98731.44
2023-11-27T21:42:49.285Z,98712.22
2023-11-27T21:45:18.176Z,98720.28
2023-11-27T21:47:47.074Z,98706.97
2023-11-27T21:50:16.392Z,98701.25
2023-11-27T21:52:45.337Z,98703.03
2023-11-27T21:55:14.208Z,98691.03
2023-11-27T21:57:44.419Z,98694.75
2023-11-27T22:00:17.204Z,98691.22
2023-11-27T22:02:46.601Z,98677.53
2023-11-27T22:05:15.701Z,98686.59
2023-11-27T22:07:50.819Z,98684.97
2023-11-27T22:10:22.003Z,98683.19
2023-11-27T22:12:52.263Z,98674.69
2023-11-27T22:15:21.611Z,98677.38
2023-11-27T22:17:50.435Z,98682.56
2023-11-27T22:20:19.504Z,98669.63
2023-11-27T22:22:48.515Z,98671.41
2023-11-27T22:25:17.332Z,98654.72
2023-11-27T22:27:48.927Z,98663.63
2023-11-27T22:30:20.146Z,98660.94
2023-11-27T22:32:49.793Z,98657.53
2023-11-27T22:35:18.636Z,98658.47
2023-11-27T22:37:47.478Z,98656.84
2023-11-27T22:40:16.361Z,98648.22
2023-11-27T22:42:45.754Z,98653.41
2023-11-27T22:45:18.933Z,98648.22
2023-11-27T22:47:50.823Z,98645.81
2023-11-27T22:50:19.821Z,98642.41
2023-11-27T22:52:48.607Z,98637.09
2023-11-27T22:55:17.477Z,98631.94
2023-11-27T22:57:49.119Z,98630.34
2023-11-27T23:00:23.965Z,98626.97
2023-11-27T23:02:53.402Z,98624.44
2023-11-27T23:05:22.351Z,98619.38
2023-11-27T23:07:51.142Z,98620.31
2023-11-27T23:10:19.915Z,98621.13
2023-11-27T23:12:48.474Z,98623.03
2023-11-27T23:15:17.153Z,98621.31
2023-11-27T23:17:48.170Z,98617.03
2023-11-27T23:20:16.960Z,98619.72
2023-11-27T23:22:45.366Z,98609.44
2023-11-27T23:25:14.154Z,98608.34
2023-11-27T23:27:42.762Z,98611.09
2023-11-27T23:30:12.065Z,98605.88
2023-11-27T23:32:40.623Z,98606.81
2023-11-27T23:35:10.937Z,98603.34
2023-11-27T23:37:39.567Z,98602.41
2023-11-27T23:40:09.670Z,98603.44
2023-11-27T23:42:38.177Z,98595.50
2023-11-27T23:45:07.690Z,98587.72
2023-11-27T23:47:36.337Z,98595.56
2023-11-27T23:50:05.631Z,98594.91
2023-11-27T23:52:35.769Z,98603.63
2023-11-27T23:55:04.827Z,98600.72
2023-11-27T23:57:33.435Z,98594.72
